CXA021 CYYZ-MROC
Flight info
| Callsign | CXA021 |
|---|---|
| Flight time | 4h 43m |
| Altitude | 34000 |
| Route | BETES3 ERI DCT EWC DCT CKB DCT COBBE DCT DANCO DCT SLOJO Q103 GRONK DCT WURFL Q83 JEVED Q97 PRMUS DCT DEBRL/N0462F350 Q93 EBAYY/N0466F340 Q93 MCLAW Y442 FUNDI/N0467F350 UM335 ALVEK UM328 SELEK UZ403 PIRAS BARRA4P |
| Aircraft | A306/H-SDE3FGHIRWY/LB1 |
Departure
| Time | 2026-05-04 16:15 |
|---|---|
| Airport | Toronto Pearson International Airport (CYYZ) |
Arrival
| Time | 2026-05-04 20:58 |
|---|---|
| Airport | Juan Santamaría International Airport (MROC) |
| Time | Latitude | Longitude | Altitude | Speed | Heading |
|---|---|---|---|---|---|
| 2026-05-04 15:26 | 43.68174 | -79.61978 | 577 ft | 0 kts | 343° |
| 2026-05-04 16:04 | 43.68151 | -79.61970 | 572 ft | 4 kts | 345° |
| 2026-05-04 16:04 | 43.68129 | -79.61960 | 575 ft | 3 kts | 335° |
| 2026-05-04 16:05 | 43.68108 | -79.61941 | 572 ft | 4 kts | 302° |
| 2026-05-04 16:05 | 43.68102 | -79.61913 | 575 ft | 4 kts | 250° |
| 2026-05-04 16:05 | 43.68120 | -79.61875 | 576 ft | 0 kts | 226° |
| 2026-05-04 16:09 | 43.68013 | -79.61987 | 569 ft | 16 kts | 196° |
| 2026-05-04 16:09 | 43.68033 | -79.62180 | 568 ft | 14 kts | 316° |
| 2026-05-04 16:10 | 43.68178 | -79.62373 | 569 ft | 19 kts | 316° |
| 2026-05-04 16:11 | 43.68564 | -79.62863 | 576 ft | 31 kts | 316° |
| 2026-05-04 16:11 | 43.68725 | -79.63084 | 569 ft | 34 kts | 314° |
| 2026-05-04 16:12 | 43.69090 | -79.63526 | 574 ft | 4 kts | 351° |
| 2026-05-04 16:12 | 43.69260 | -79.63420 | 572 ft | 14 kts | 1° |
| 2026-05-04 16:13 | 43.69445 | -79.63310 | 573 ft | 11 kts | 1° |
| 2026-05-04 16:13 | 43.69477 | -79.63415 | 574 ft | 6 kts | 227° |
| 2026-05-04 16:14 | 43.69271 | -79.63716 | 572 ft | 68 kts | 226° |
| 2026-05-04 16:14 | 43.68117 | -79.65396 | 596 ft | 168 kts | 226° |
| 2026-05-04 16:15 | 43.65691 | -79.69420 | 2703 ft | 190 kts | 237° |
| 2026-05-04 16:16 | 43.63958 | -79.72333 | 4019 ft | 216 kts | 218° |
| 2026-05-04 16:16 | 43.58905 | -79.72327 | 5949 ft | 265 kts | 174° |
| 2026-05-04 16:17 | 43.55206 | -79.71314 | 7522 ft | 277 kts | 174° |
| 2026-05-04 16:18 | 43.49356 | -79.69768 | 9872 ft | 294 kts | 175° |
| 2026-05-04 16:18 | 43.47309 | -79.69234 | 10384 ft | 307 kts | 175° |
| 2026-05-04 16:19 | 43.40464 | -79.68438 | 11173 ft | 349 kts | 200° |
| 2026-05-04 16:19 | 43.35767 | -79.70874 | 11795 ft | 372 kts | 206° |
| 2026-05-04 16:20 | 43.28426 | -79.74871 | 13402 ft | 388 kts | 206° |
| 2026-05-04 16:20 | 43.23223 | -79.77234 | 14489 ft | 400 kts | 199° |
| 2026-05-04 16:21 | 43.15958 | -79.79687 | 15977 ft | 409 kts | 198° |
| 2026-05-04 16:22 | 43.10393 | -79.81566 | 17075 ft | 416 kts | 198° |
| 2026-05-04 16:22 | 43.01855 | -79.84445 | 18554 ft | 426 kts | 198° |
| 2026-05-04 16:23 | 42.93140 | -79.87382 | 19874 ft | 434 kts | 199° |
| 2026-05-04 16:24 | 42.81350 | -79.91607 | 21567 ft | 441 kts | 204° |
| 2026-05-04 16:25 | 42.75535 | -79.94387 | 22389 ft | 445 kts | 204° |
| 2026-05-04 16:26 | 42.63755 | -80.00026 | 23815 ft | 453 kts | 204° |
| 2026-05-04 16:26 | 42.54771 | -80.04301 | 24723 ft | 459 kts | 204° |
| 2026-05-04 16:27 | 42.48721 | -80.07172 | 25306 ft | 462 kts | 204° |
| 2026-05-04 16:28 | 42.39565 | -80.11506 | 26115 ft | 467 kts | 204° |
| 2026-05-04 16:28 | 42.30314 | -80.15871 | 26876 ft | 472 kts | 204° |
| 2026-05-04 16:29 | 42.17913 | -80.21698 | 28225 ft | 470 kts | 204° |
| 2026-05-04 16:30 | 42.08686 | -80.26020 | 29277 ft | 467 kts | 204° |
| 2026-05-04 16:31 | 42.02475 | -80.28579 | 29945 ft | 471 kts | 195° |
| 2026-05-04 16:31 | 41.92544 | -80.28805 | 30739 ft | 480 kts | 181° |
| 2026-05-04 16:32 | 41.82541 | -80.27989 | 31531 ft | 480 kts | 181° |
| 2026-05-04 16:33 | 41.75878 | -80.27485 | 32028 ft | 480 kts | 181° |
| 2026-05-04 16:33 | 41.69218 | -80.27022 | 32533 ft | 480 kts | 181° |
| 2026-05-04 16:34 | 41.62549 | -80.26569 | 33013 ft | 480 kts | 181° |
| 2026-05-04 16:34 | 41.59204 | -80.26342 | 33255 ft | 480 kts | 181° |
| 2026-05-04 16:35 | 41.49217 | -80.25661 | 33847 ft | 480 kts | 181° |
| 2026-05-04 16:35 | 41.39232 | -80.24979 | 33868 ft | 478 kts | 182° |
| 2026-05-04 16:36 | 41.29313 | -80.24308 | 33891 ft | 478 kts | 182° |
| 2026-05-04 16:37 | 41.19347 | -80.23635 | 33891 ft | 478 kts | 182° |
| 2026-05-04 16:38 | 41.06070 | -80.22738 | 33899 ft | 478 kts | 182° |
| 2026-05-04 16:39 | 40.89484 | -80.21621 | 33913 ft | 477 kts | 182° |
| 2026-05-04 16:40 | 40.76241 | -80.21211 | 33905 ft | 473 kts | 187° |
| 2026-05-04 16:41 | 40.59788 | -80.21983 | 33907 ft | 473 kts | 187° |
| 2026-05-04 16:42 | 40.49922 | -80.22349 | 33549 ft | 473 kts | 187° |
| 2026-05-04 16:43 | 40.43364 | -80.22585 | 33898 ft | 471 kts | 185° |
| 2026-05-04 16:43 | 40.33511 | -80.22939 | 33916 ft | 473 kts | 185° |
| 2026-05-04 16:45 | 40.13796 | -80.23651 | 33948 ft | 472 kts | 185° |
| 2026-05-04 16:46 | 39.97410 | -80.24235 | 33953 ft | 471 kts | 186° |
| 2026-05-04 16:47 | 39.84315 | -80.24703 | 33948 ft | 471 kts | 186° |
| 2026-05-04 16:48 | 39.71271 | -80.25166 | 33951 ft | 470 kts | 186° |
| 2026-05-04 16:49 | 39.58181 | -80.25631 | 33948 ft | 470 kts | 186° |
| 2026-05-04 16:50 | 39.45132 | -80.26090 | 33970 ft | 469 kts | 187° |
| 2026-05-04 16:51 | 39.35337 | -80.26435 | 33978 ft | 469 kts | 187° |
| 2026-05-04 16:52 | 39.22367 | -80.27691 | 33980 ft | 461 kts | 197° |
| 2026-05-04 16:53 | 39.13000 | -80.30381 | 33972 ft | 459 kts | 199° |
| 2026-05-04 16:54 | 39.00549 | -80.34113 | 33970 ft | 460 kts | 199° |
| 2026-05-04 16:55 | 38.81835 | -80.39617 | 33977 ft | 460 kts | 199° |
| 2026-05-04 16:56 | 38.66287 | -80.44165 | 33992 ft | 459 kts | 199° |
| 2026-05-04 16:57 | 38.56932 | -80.46891 | 33990 ft | 460 kts | 199° |
| 2026-05-04 16:58 | 38.44442 | -80.50522 | 34012 ft | 460 kts | 199° |
| 2026-05-04 17:00 | 38.25401 | -80.54571 | 34018 ft | 465 kts | 193° |
| 2026-05-04 17:01 | 38.09357 | -80.56874 | 34034 ft | 463 kts | 193° |
| 2026-05-04 17:02 | 37.96598 | -80.58721 | 34047 ft | 460 kts | 193° |
| 2026-05-04 17:03 | 37.87116 | -80.60091 | 34044 ft | 459 kts | 193° |
| 2026-05-04 17:03 | 37.77601 | -80.61463 | 34049 ft | 458 kts | 194° |
| 2026-05-04 17:04 | 37.64959 | -80.63282 | 34048 ft | 455 kts | 194° |
| 2026-05-04 17:05 | 37.52424 | -80.65077 | 34066 ft | 453 kts | 194° |
| 2026-05-04 17:06 | 37.43037 | -80.66421 | 34052 ft | 452 kts | 194° |
| 2026-05-04 17:07 | 37.35773 | -80.67456 | 34066 ft | 452 kts | 194° |
| 2026-05-04 17:07 | 37.28469 | -80.68496 | 34067 ft | 451 kts | 195° |
| 2026-05-04 17:08 | 37.19103 | -80.69828 | 34068 ft | 452 kts | 195° |
| 2026-05-04 17:09 | 37.12861 | -80.70713 | 34071 ft | 452 kts | 195° |
| 2026-05-04 17:09 | 37.06541 | -80.71208 | 34071 ft | 459 kts | 188° |
| 2026-05-04 17:10 | 36.90543 | -80.70880 | 34053 ft | 461 kts | 187° |
| 2026-05-04 17:11 | 36.84123 | -80.70716 | 34069 ft | 462 kts | 187° |
| 2026-05-04 17:12 | 36.74475 | -80.70485 | 34072 ft | 462 kts | 187° |
| 2026-05-04 17:13 | 36.58366 | -80.70110 | 34074 ft | 464 kts | 187° |
| 2026-05-04 17:14 | 36.45487 | -80.69811 | 34085 ft | 463 kts | 187° |
| 2026-05-04 17:15 | 36.35820 | -80.69589 | 34081 ft | 463 kts | 186° |
| 2026-05-04 17:16 | 36.22956 | -80.69290 | 34060 ft | 462 kts | 186° |
| 2026-05-04 17:17 | 36.10113 | -80.68994 | 34053 ft | 461 kts | 186° |
| 2026-05-04 17:18 | 35.97292 | -80.68699 | 34058 ft | 461 kts | 186° |
| 2026-05-04 17:19 | 35.84482 | -80.68407 | 34076 ft | 460 kts | 186° |
| 2026-05-04 17:20 | 35.71683 | -80.68118 | 34080 ft | 460 kts | 186° |
| 2026-05-04 17:20 | 35.62131 | -80.67901 | 34079 ft | 460 kts | 186° |
| 2026-05-04 17:21 | 35.49310 | -80.67611 | 34117 ft | 459 kts | 186° |
| 2026-05-04 17:22 | 35.42930 | -80.67468 | 34115 ft | 459 kts | 186° |
| 2026-05-04 17:23 | 35.30171 | -80.67178 | 34115 ft | 458 kts | 186° |
| 2026-05-04 17:24 | 35.20620 | -80.66961 | 34113 ft | 457 kts | 186° |
| 2026-05-04 17:25 | 35.07921 | -80.66677 | 34087 ft | 456 kts | 186° |
| 2026-05-04 17:26 | 34.95256 | -80.66395 | 34090 ft | 455 kts | 185° |
| 2026-05-04 17:27 | 34.79473 | -80.66045 | 34093 ft | 453 kts | 185° |
| 2026-05-04 17:28 | 34.66873 | -80.65827 | 34089 ft | 449 kts | 189° |
| 2026-05-04 17:29 | 34.57898 | -80.68136 | 34095 ft | 437 kts | 202° |
| 2026-05-04 17:29 | 34.49200 | -80.71407 | 34101 ft | 436 kts | 203° |
| 2026-05-04 17:31 | 34.34706 | -80.76834 | 34107 ft | 436 kts | 203° |
| 2026-05-04 17:32 | 34.20186 | -80.82196 | 34110 ft | 436 kts | 202° |
| 2026-05-04 17:33 | 34.08577 | -80.86475 | 34110 ft | 436 kts | 202° |
| 2026-05-04 17:34 | 33.96956 | -80.90744 | 34109 ft | 436 kts | 202° |
| 2026-05-04 17:35 | 33.82462 | -80.96052 | 34106 ft | 436 kts | 203° |
| 2026-05-04 17:36 | 33.76656 | -80.98173 | 34092 ft | 436 kts | 203° |
| 2026-05-04 17:36 | 33.70855 | -81.00288 | 34091 ft | 436 kts | 203° |
| 2026-05-04 17:37 | 33.65056 | -81.02400 | 34086 ft | 436 kts | 203° |
| 2026-05-04 17:37 | 33.59260 | -81.04510 | 34082 ft | 436 kts | 203° |
| 2026-05-04 17:38 | 33.53459 | -81.06618 | 34081 ft | 436 kts | 203° |
| 2026-05-04 17:38 | 33.47656 | -81.08722 | 34090 ft | 435 kts | 203° |
| 2026-05-04 17:39 | 33.38689 | -81.10861 | 34113 ft | 450 kts | 186° |
| 2026-05-04 17:39 | 33.32405 | -81.10444 | 34118 ft | 454 kts | 182° |
| 2026-05-04 17:40 | 33.26099 | -81.09733 | 34111 ft | 455 kts | 181° |
| 2026-05-04 17:40 | 33.19800 | -81.09002 | 34110 ft | 455 kts | 181° |
| 2026-05-04 17:41 | 33.13496 | -81.08305 | 34109 ft | 455 kts | 181° |
| 2026-05-04 17:41 | 33.07196 | -81.07632 | 34110 ft | 454 kts | 182° |
| 2026-05-04 17:42 | 33.00899 | -81.06965 | 34108 ft | 454 kts | 182° |
| 2026-05-04 17:42 | 32.94555 | -81.06292 | 34106 ft | 455 kts | 182° |
| 2026-05-04 17:43 | 32.88291 | -81.05628 | 34107 ft | 455 kts | 182° |
| 2026-05-04 17:43 | 32.81941 | -81.04955 | 34108 ft | 455 kts | 182° |
| 2026-05-04 17:44 | 32.75668 | -81.04291 | 34114 ft | 455 kts | 182° |
| 2026-05-04 17:44 | 32.69318 | -81.03619 | 34120 ft | 455 kts | 182° |
| 2026-05-04 17:45 | 32.63047 | -81.02957 | 34121 ft | 456 kts | 182° |
| 2026-05-04 17:45 | 32.56725 | -81.02292 | 34125 ft | 456 kts | 182° |
| 2026-05-04 17:46 | 32.50649 | -81.01962 | 34127 ft | 451 kts | 187° |
| 2026-05-04 17:46 | 32.44369 | -81.02017 | 34124 ft | 451 kts | 188° |
| 2026-05-04 17:47 | 32.38093 | -81.02140 | 34124 ft | 451 kts | 189° |
| 2026-05-04 17:47 | 32.31819 | -81.02265 | 34127 ft | 451 kts | 189° |
| 2026-05-04 17:48 | 32.26604 | -81.02363 | 34129 ft | 451 kts | 189° |
| 2026-05-04 17:48 | 32.20321 | -81.02475 | 34129 ft | 452 kts | 189° |
| 2026-05-04 17:49 | 32.14028 | -81.02585 | 34127 ft | 452 kts | 189° |
| 2026-05-04 17:49 | 32.07732 | -81.02695 | 34100 ft | 452 kts | 189° |
| 2026-05-04 17:50 | 32.01435 | -81.02807 | 34096 ft | 453 kts | 189° |
| 2026-05-04 17:50 | 31.95138 | -81.02949 | 34098 ft | 453 kts | 190° |
| 2026-05-04 17:51 | 31.88838 | -81.03126 | 34100 ft | 453 kts | 190° |
| 2026-05-04 17:51 | 31.82525 | -81.03306 | 34105 ft | 454 kts | 190° |
| 2026-05-04 17:52 | 31.76213 | -81.03480 | 34107 ft | 454 kts | 190° |
| 2026-05-04 17:52 | 31.69901 | -81.03652 | 34116 ft | 454 kts | 191° |
| 2026-05-04 17:53 | 31.63585 | -81.03824 | 34120 ft | 454 kts | 191° |
| 2026-05-04 17:53 | 31.57273 | -81.04020 | 34121 ft | 453 kts | 192° |
| 2026-05-04 17:54 | 31.50985 | -81.04396 | 34120 ft | 452 kts | 193° |
| 2026-05-04 17:54 | 31.44715 | -81.04831 | 34121 ft | 451 kts | 193° |
| 2026-05-04 17:55 | 31.38445 | -81.05255 | 34122 ft | 452 kts | 193° |
| 2026-05-04 17:55 | 31.32168 | -81.05664 | 34122 ft | 452 kts | 193° |
| 2026-05-04 17:56 | 31.25893 | -81.06066 | 34123 ft | 452 kts | 193° |
| 2026-05-04 17:56 | 31.19584 | -81.06300 | 34128 ft | 454 kts | 191° |
| 2026-05-04 17:57 | 31.13257 | -81.06401 | 34130 ft | 455 kts | 191° |
| 2026-05-04 17:57 | 31.06939 | -81.06500 | 34137 ft | 454 kts | 191° |
| 2026-05-04 17:58 | 31.00615 | -81.06620 | 34128 ft | 454 kts | 191° |
| 2026-05-04 17:58 | 30.94341 | -81.06749 | 34133 ft | 454 kts | 191° |
| 2026-05-04 17:59 | 30.88027 | -81.06881 | 34127 ft | 454 kts | 191° |
| 2026-05-04 18:00 | 30.78552 | -81.07077 | 34127 ft | 454 kts | 191° |
| 2026-05-04 18:00 | 30.72233 | -81.07207 | 34131 ft | 454 kts | 191° |
| 2026-05-04 18:01 | 30.65916 | -81.07337 | 34130 ft | 454 kts | 191° |
| 2026-05-04 18:01 | 30.59610 | -81.07536 | 34127 ft | 452 kts | 192° |
| 2026-05-04 18:02 | 30.50196 | -81.08123 | 34128 ft | 452 kts | 193° |
| 2026-05-04 18:02 | 30.43914 | -81.08527 | 34126 ft | 452 kts | 192° |
| 2026-05-04 18:03 | 30.37632 | -81.08913 | 34127 ft | 452 kts | 192° |
| 2026-05-04 18:03 | 30.31343 | -81.09290 | 34126 ft | 453 kts | 192° |
| 2026-05-04 18:04 | 30.25056 | -81.09665 | 34126 ft | 453 kts | 192° |
| 2026-05-04 18:05 | 30.15624 | -81.10228 | 34128 ft | 452 kts | 192° |
| 2026-05-04 18:05 | 30.09377 | -81.10602 | 34129 ft | 452 kts | 192° |
| 2026-05-04 18:06 | 29.99950 | -81.11165 | 34130 ft | 452 kts | 192° |
| 2026-05-04 18:06 | 29.93660 | -81.11539 | 34131 ft | 452 kts | 192° |
| 2026-05-04 18:07 | 29.87378 | -81.11913 | 34129 ft | 452 kts | 192° |
| 2026-05-04 18:07 | 29.81095 | -81.12273 | 34129 ft | 453 kts | 191° |
| 2026-05-04 18:08 | 29.74783 | -81.12458 | 34129 ft | 454 kts | 190° |
| 2026-05-04 18:08 | 29.68455 | -81.12570 | 34129 ft | 454 kts | 190° |
| 2026-05-04 18:09 | 29.55821 | -81.12826 | 34131 ft | 454 kts | 190° |
| 2026-05-04 18:10 | 29.49517 | -81.12967 | 34134 ft | 453 kts | 190° |
| 2026-05-04 18:10 | 29.43217 | -81.13110 | 34137 ft | 453 kts | 190° |
| 2026-05-04 18:11 | 29.36910 | -81.13251 | 34131 ft | 453 kts | 190° |
| 2026-05-04 18:11 | 29.30578 | -81.13085 | 34127 ft | 464 kts | 181° |
| 2026-05-04 18:12 | 29.27389 | -81.12289 | 34123 ft | 476 kts | 172° |
| 2026-05-04 18:12 | 29.24233 | -81.11086 | 34126 ft | 479 kts | 169° |
| 2026-05-04 18:12 | 29.17975 | -81.08363 | 34127 ft | 482 kts | 167° |
| 2026-05-04 18:13 | 29.11739 | -81.05534 | 34126 ft | 482 kts | 167° |
| 2026-05-04 18:14 | 29.02372 | -81.01355 | 34123 ft | 481 kts | 167° |
| 2026-05-04 18:14 | 28.96119 | -80.98603 | 34125 ft | 481 kts | 168° |
| 2026-05-04 18:15 | 28.83615 | -80.93118 | 34111 ft | 481 kts | 168° |
| 2026-05-04 18:16 | 28.77362 | -80.90378 | 34090 ft | 482 kts | 168° |
| 2026-05-04 18:16 | 28.71143 | -80.87656 | 34089 ft | 481 kts | 168° |
| 2026-05-04 18:17 | 28.61713 | -80.83849 | 34119 ft | 478 kts | 171° |
| 2026-05-04 18:18 | 28.52240 | -80.80281 | 34118 ft | 478 kts | 171° |
| 2026-05-04 18:18 | 28.45919 | -80.77879 | 34128 ft | 479 kts | 170° |
| 2026-05-04 18:19 | 28.36438 | -80.74260 | 34342 ft | 482 kts | 170° |
| 2026-05-04 18:19 | 28.33247 | -80.73043 | 34486 ft | 483 kts | 170° |
| 2026-05-04 18:19 | 28.30064 | -80.71828 | 34688 ft | 483 kts | 170° |
| 2026-05-04 18:20 | 28.26882 | -80.70612 | 34919 ft | 482 kts | 170° |
| 2026-05-04 18:20 | 28.23699 | -80.69398 | 35062 ft | 482 kts | 170° |
| 2026-05-04 18:20 | 28.17372 | -80.66985 | 35079 ft | 478 kts | 170° |
| 2026-05-04 18:21 | 28.11080 | -80.64592 | 35099 ft | 476 kts | 170° |
| 2026-05-04 18:21 | 28.04794 | -80.62209 | 35098 ft | 476 kts | 170° |
| 2026-05-04 18:22 | 27.98510 | -80.59828 | 35094 ft | 476 kts | 170° |
| 2026-05-04 18:22 | 27.92234 | -80.57452 | 35091 ft | 476 kts | 170° |
| 2026-05-04 18:23 | 27.85953 | -80.55077 | 35090 ft | 476 kts | 170° |
| 2026-05-04 18:23 | 27.79685 | -80.52708 | 35093 ft | 475 kts | 170° |
| 2026-05-04 18:24 | 27.73372 | -80.50797 | 35097 ft | 461 kts | 181° |
| 2026-05-04 18:24 | 27.70213 | -80.50608 | 35096 ft | 449 kts | 191° |
| 2026-05-04 18:24 | 27.67111 | -80.50848 | 35102 ft | 445 kts | 194° |
| 2026-05-04 18:25 | 27.60969 | -80.51641 | 35097 ft | 443 kts | 196° |
| 2026-05-04 18:25 | 27.54856 | -80.52547 | 35091 ft | 443 kts | 196° |
| 2026-05-04 18:26 | 27.48739 | -80.53434 | 35085 ft | 444 kts | 195° |
| 2026-05-04 18:26 | 27.42598 | -80.54294 | 35080 ft | 444 kts | 195° |
| 2026-05-04 18:27 | 27.36498 | -80.55137 | 35082 ft | 445 kts | 195° |
| 2026-05-04 18:27 | 27.30352 | -80.55984 | 35070 ft | 445 kts | 195° |
| 2026-05-04 18:28 | 27.24210 | -80.56831 | 35059 ft | 445 kts | 195° |
| 2026-05-04 18:28 | 27.18071 | -80.57677 | 35053 ft | 445 kts | 195° |
| 2026-05-04 18:29 | 27.11922 | -80.58524 | 35052 ft | 445 kts | 195° |
| 2026-05-04 18:29 | 27.05779 | -80.59370 | 35054 ft | 445 kts | 195° |
| 2026-05-04 18:30 | 26.96555 | -80.60637 | 35054 ft | 445 kts | 195° |
| 2026-05-04 18:31 | 26.90401 | -80.61481 | 35051 ft | 445 kts | 195° |
| 2026-05-04 18:31 | 26.84251 | -80.62324 | 35047 ft | 445 kts | 195° |
| 2026-05-04 18:32 | 26.78095 | -80.63167 | 35047 ft | 446 kts | 194° |
| 2026-05-04 18:32 | 26.71943 | -80.64009 | 35046 ft | 446 kts | 194° |
| 2026-05-04 18:33 | 26.65789 | -80.64849 | 35048 ft | 446 kts | 194° |
| 2026-05-04 18:33 | 26.59630 | -80.65690 | 35051 ft | 446 kts | 194° |
| 2026-05-04 18:34 | 26.53465 | -80.66531 | 35048 ft | 446 kts | 194° |
| 2026-05-04 18:34 | 26.47304 | -80.67370 | 35043 ft | 446 kts | 194° |
| 2026-05-04 18:35 | 26.41176 | -80.68203 | 35051 ft | 446 kts | 194° |
| 2026-05-04 18:35 | 26.35009 | -80.69041 | 35042 ft | 447 kts | 194° |
| 2026-05-04 18:36 | 26.28838 | -80.69878 | 35041 ft | 447 kts | 194° |
| 2026-05-04 18:36 | 26.22663 | -80.70716 | 35040 ft | 447 kts | 194° |
| 2026-05-04 18:37 | 26.16482 | -80.71553 | 35039 ft | 447 kts | 194° |
| 2026-05-04 18:37 | 26.11351 | -80.72246 | 35036 ft | 447 kts | 194° |
| 2026-05-04 18:38 | 26.05168 | -80.73082 | 35032 ft | 447 kts | 194° |
| 2026-05-04 18:38 | 25.98986 | -80.73916 | 35033 ft | 447 kts | 194° |
| 2026-05-04 18:39 | 25.92808 | -80.74750 | 35032 ft | 447 kts | 194° |
| 2026-05-04 18:39 | 25.86626 | -80.75583 | 35030 ft | 447 kts | 194° |
| 2026-05-04 18:40 | 25.80441 | -80.76416 | 35027 ft | 447 kts | 194° |
| 2026-05-04 18:40 | 25.74376 | -80.77651 | 35025 ft | 443 kts | 199° |
| 2026-05-04 18:41 | 25.68352 | -80.79074 | 35026 ft | 442 kts | 199° |
| 2026-05-04 18:41 | 25.62343 | -80.80526 | 35023 ft | 442 kts | 199° |
| 2026-05-04 18:42 | 25.56334 | -80.81974 | 35018 ft | 442 kts | 199° |
| 2026-05-04 18:42 | 25.50324 | -80.83414 | 35016 ft | 442 kts | 199° |
| 2026-05-04 18:43 | 25.44352 | -80.84840 | 35014 ft | 442 kts | 199° |
| 2026-05-04 18:43 | 25.38343 | -80.86273 | 35010 ft | 442 kts | 199° |
| 2026-05-04 18:44 | 25.32329 | -80.87706 | 35013 ft | 442 kts | 199° |
| 2026-05-04 18:44 | 25.26317 | -80.89137 | 35010 ft | 442 kts | 199° |
| 2026-05-04 18:45 | 25.20307 | -80.90566 | 35009 ft | 442 kts | 199° |
| 2026-05-04 18:45 | 25.14304 | -80.91992 | 35011 ft | 441 kts | 199° |
| 2026-05-04 18:46 | 25.08299 | -80.93418 | 35007 ft | 441 kts | 199° |
| 2026-05-04 18:46 | 25.02339 | -80.94831 | 35012 ft | 441 kts | 199° |
| 2026-05-04 18:47 | 24.96336 | -80.96254 | 35020 ft | 441 kts | 199° |
| 2026-05-04 18:47 | 24.90331 | -80.97675 | 35023 ft | 441 kts | 199° |
| 2026-05-04 18:48 | 24.84333 | -80.99093 | 35032 ft | 441 kts | 199° |
| 2026-05-04 18:48 | 24.78335 | -81.00497 | 35033 ft | 442 kts | 197° |
| 2026-05-04 18:49 | 24.72143 | -81.01115 | 35039 ft | 449 kts | 190° |
| 2026-05-04 18:49 | 24.65881 | -81.01376 | 35035 ft | 451 kts | 189° |
| 2026-05-04 18:50 | 24.59611 | -81.01575 | 35034 ft | 451 kts | 189° |
| 2026-05-04 18:50 | 24.53327 | -81.01705 | 35023 ft | 453 kts | 187° |
| 2026-05-04 18:51 | 24.47026 | -81.01645 | 35024 ft | 453 kts | 187° |
| 2026-05-04 18:51 | 24.40719 | -81.01556 | 35019 ft | 453 kts | 187° |
| 2026-05-04 18:52 | 24.34410 | -81.01486 | 35013 ft | 453 kts | 187° |
| 2026-05-04 18:52 | 24.28149 | -81.01431 | 35012 ft | 453 kts | 187° |
| 2026-05-04 18:53 | 24.21809 | -81.01379 | 35014 ft | 453 kts | 187° |
| 2026-05-04 18:53 | 24.15547 | -81.01328 | 35012 ft | 453 kts | 187° |
| 2026-05-04 18:54 | 24.09242 | -81.01276 | 35014 ft | 453 kts | 187° |
| 2026-05-04 18:54 | 24.02941 | -81.01223 | 35014 ft | 453 kts | 187° |
| 2026-05-04 18:55 | 23.96638 | -81.01103 | 35015 ft | 454 kts | 186° |
| 2026-05-04 18:55 | 23.87154 | -81.00681 | 35017 ft | 455 kts | 185° |
| 2026-05-04 18:56 | 23.80828 | -81.00392 | 35016 ft | 455 kts | 185° |
| 2026-05-04 18:56 | 23.74503 | -81.00119 | 35016 ft | 455 kts | 185° |
| 2026-05-04 18:57 | 23.68183 | -80.99853 | 35015 ft | 455 kts | 185° |
| 2026-05-04 18:57 | 23.61858 | -80.99587 | 35020 ft | 455 kts | 185° |
| 2026-05-04 18:58 | 23.55532 | -80.99321 | 35015 ft | 455 kts | 185° |
| 2026-05-04 18:58 | 23.49208 | -80.99055 | 35010 ft | 455 kts | 185° |
| 2026-05-04 18:59 | 23.42887 | -80.98789 | 35011 ft | 455 kts | 185° |
| 2026-05-04 18:59 | 23.36571 | -80.98524 | 35011 ft | 455 kts | 185° |
| 2026-05-04 19:00 | 23.30239 | -80.98259 | 35007 ft | 455 kts | 185° |
| 2026-05-04 19:00 | 23.23915 | -80.97993 | 35007 ft | 455 kts | 185° |
| 2026-05-04 19:01 | 23.17590 | -80.97727 | 35007 ft | 455 kts | 185° |
| 2026-05-04 19:01 | 23.11252 | -80.97459 | 35003 ft | 456 kts | 185° |
| 2026-05-04 19:02 | 23.04921 | -80.97253 | 34998 ft | 452 kts | 189° |
| 2026-05-04 19:02 | 22.98881 | -80.98385 | 35003 ft | 438 kts | 204° |
| 2026-05-04 19:03 | 22.93131 | -81.00530 | 35005 ft | 436 kts | 206° |
| 2026-05-04 19:03 | 22.87447 | -81.02846 | 35004 ft | 436 kts | 207° |
| 2026-05-04 19:04 | 22.81761 | -81.05167 | 35000 ft | 437 kts | 207° |
| 2026-05-04 19:04 | 22.76059 | -81.07465 | 35002 ft | 437 kts | 207° |
| 2026-05-04 19:05 | 22.70352 | -81.09747 | 34998 ft | 437 kts | 207° |
| 2026-05-04 19:05 | 22.64643 | -81.12025 | 35000 ft | 438 kts | 207° |
| 2026-05-04 19:06 | 22.58926 | -81.14305 | 35000 ft | 438 kts | 207° |
| 2026-05-04 19:06 | 22.53210 | -81.16584 | 34999 ft | 438 kts | 207° |
| 2026-05-04 19:07 | 22.47491 | -81.18862 | 34997 ft | 439 kts | 207° |
| 2026-05-04 19:07 | 22.41760 | -81.21143 | 34999 ft | 439 kts | 207° |
| 2026-05-04 19:08 | 22.36027 | -81.23422 | 35002 ft | 439 kts | 207° |
| 2026-05-04 19:08 | 22.30284 | -81.25704 | 34999 ft | 440 kts | 207° |
| 2026-05-04 19:09 | 22.24538 | -81.27984 | 35000 ft | 440 kts | 207° |
| 2026-05-04 19:09 | 22.18790 | -81.30264 | 35004 ft | 440 kts | 207° |
| 2026-05-04 19:10 | 22.13072 | -81.32530 | 35004 ft | 441 kts | 207° |
| 2026-05-04 19:10 | 22.07316 | -81.34808 | 35007 ft | 441 kts | 207° |
| 2026-05-04 19:11 | 22.01559 | -81.37085 | 35008 ft | 441 kts | 207° |
| 2026-05-04 19:11 | 21.95796 | -81.39362 | 35008 ft | 441 kts | 207° |
| 2026-05-04 19:12 | 21.87155 | -81.42773 | 35013 ft | 441 kts | 207° |
| 2026-05-04 19:13 | 21.81393 | -81.45045 | 35012 ft | 441 kts | 207° |
| 2026-05-04 19:13 | 21.75631 | -81.47315 | 35011 ft | 441 kts | 207° |
| 2026-05-04 19:14 | 21.69868 | -81.49584 | 35010 ft | 441 kts | 207° |
| 2026-05-04 19:14 | 21.64104 | -81.51852 | 35010 ft | 441 kts | 207° |
| 2026-05-04 19:15 | 21.58527 | -81.54475 | 35015 ft | 434 kts | 213° |
| 2026-05-04 19:15 | 21.53193 | -81.57543 | 35012 ft | 433 kts | 215° |
| 2026-05-04 19:16 | 21.47951 | -81.60653 | 35014 ft | 433 kts | 215° |
| 2026-05-04 19:16 | 21.42675 | -81.63786 | 35011 ft | 434 kts | 215° |
| 2026-05-04 19:17 | 21.37388 | -81.66910 | 35012 ft | 434 kts | 215° |
| 2026-05-04 19:17 | 21.32100 | -81.70024 | 35012 ft | 434 kts | 214° |
| 2026-05-04 19:18 | 21.26802 | -81.73140 | 35016 ft | 434 kts | 214° |
| 2026-05-04 19:18 | 21.21507 | -81.76252 | 35008 ft | 434 kts | 214° |
| 2026-05-04 19:19 | 21.16213 | -81.79361 | 35011 ft | 434 kts | 214° |
| 2026-05-04 19:19 | 21.10905 | -81.82476 | 35008 ft | 435 kts | 214° |
| 2026-05-04 19:20 | 21.05600 | -81.85587 | 35005 ft | 435 kts | 214° |
| 2026-05-04 19:20 | 21.00294 | -81.88696 | 35017 ft | 435 kts | 214° |
| 2026-05-04 19:21 | 20.94982 | -81.91806 | 35021 ft | 435 kts | 214° |
| 2026-05-04 19:21 | 20.89669 | -81.94914 | 35021 ft | 435 kts | 214° |
| 2026-05-04 19:22 | 20.84351 | -81.98022 | 35015 ft | 435 kts | 214° |
| 2026-05-04 19:22 | 20.79031 | -82.01129 | 35019 ft | 436 kts | 214° |
| 2026-05-04 19:23 | 20.73715 | -82.04231 | 35008 ft | 436 kts | 214° |
| 2026-05-04 19:23 | 20.68418 | -82.07320 | 35011 ft | 437 kts | 214° |
| 2026-05-04 19:24 | 20.63081 | -82.10429 | 35010 ft | 437 kts | 214° |
| 2026-05-04 19:24 | 20.57743 | -82.13537 | 35008 ft | 437 kts | 214° |
| 2026-05-04 19:25 | 20.52403 | -82.16643 | 35009 ft | 437 kts | 214° |
| 2026-05-04 19:25 | 20.47054 | -82.19751 | 35011 ft | 438 kts | 214° |
| 2026-05-04 19:26 | 20.41707 | -82.22857 | 35013 ft | 438 kts | 214° |
| 2026-05-04 19:26 | 20.36348 | -82.25966 | 35007 ft | 439 kts | 214° |
| 2026-05-04 19:27 | 20.30984 | -82.29077 | 35006 ft | 439 kts | 214° |
| 2026-05-04 19:27 | 20.25619 | -82.32184 | 35006 ft | 439 kts | 214° |
| 2026-05-04 19:28 | 20.20247 | -82.35295 | 35005 ft | 439 kts | 214° |
| 2026-05-04 19:28 | 20.14872 | -82.38404 | 35004 ft | 440 kts | 214° |
| 2026-05-04 19:29 | 20.09364 | -82.41271 | 34998 ft | 446 kts | 205° |
| 2026-05-04 19:29 | 20.04349 | -82.42731 | 35001 ft | 451 kts | 199° |
| 2026-05-04 19:30 | 19.98200 | -82.44163 | 35002 ft | 453 kts | 198° |
| 2026-05-04 19:30 | 19.92025 | -82.45523 | 35003 ft | 453 kts | 198° |
| 2026-05-04 19:31 | 19.85852 | -82.46898 | 35004 ft | 453 kts | 198° |
| 2026-05-04 19:31 | 19.79684 | -82.48291 | 35003 ft | 453 kts | 198° |
| 2026-05-04 19:32 | 19.73518 | -82.49689 | 35003 ft | 453 kts | 198° |
| 2026-05-04 19:32 | 19.67349 | -82.51088 | 34997 ft | 453 kts | 198° |
| 2026-05-04 19:33 | 19.61174 | -82.52486 | 34999 ft | 454 kts | 198° |
| 2026-05-04 19:33 | 19.55003 | -82.53881 | 35002 ft | 454 kts | 198° |
| 2026-05-04 19:34 | 19.48829 | -82.55276 | 34995 ft | 454 kts | 198° |
| 2026-05-04 19:34 | 19.42652 | -82.56670 | 34994 ft | 454 kts | 197° |
| 2026-05-04 19:35 | 19.36475 | -82.58063 | 35000 ft | 454 kts | 197° |
| 2026-05-04 19:35 | 19.30300 | -82.59455 | 35000 ft | 454 kts | 197° |
| 2026-05-04 19:36 | 19.24120 | -82.60847 | 34993 ft | 454 kts | 197° |
| 2026-05-04 19:36 | 19.17934 | -82.62239 | 34998 ft | 454 kts | 197° |
| 2026-05-04 19:37 | 19.11747 | -82.63631 | 34995 ft | 455 kts | 197° |
| 2026-05-04 19:37 | 19.05554 | -82.65022 | 34998 ft | 455 kts | 197° |
| 2026-05-04 19:38 | 18.99365 | -82.66412 | 34991 ft | 455 kts | 197° |
| 2026-05-04 19:38 | 18.93176 | -82.67801 | 34994 ft | 455 kts | 197° |
| 2026-05-04 19:39 | 18.86972 | -82.69191 | 34993 ft | 456 kts | 197° |
| 2026-05-04 19:39 | 18.80765 | -82.70582 | 34993 ft | 456 kts | 197° |
| 2026-05-04 19:40 | 18.74559 | -82.71971 | 34994 ft | 456 kts | 197° |
| 2026-05-04 19:40 | 18.68351 | -82.73360 | 34995 ft | 457 kts | 197° |
| 2026-05-04 19:41 | 18.62174 | -82.74740 | 34995 ft | 457 kts | 197° |
| 2026-05-04 19:41 | 18.55915 | -82.76138 | 34995 ft | 457 kts | 197° |
| 2026-05-04 19:42 | 18.49694 | -82.77527 | 34994 ft | 457 kts | 197° |
| 2026-05-04 19:42 | 18.43519 | -82.78904 | 34992 ft | 457 kts | 197° |
| 2026-05-04 19:43 | 18.37293 | -82.80291 | 34990 ft | 457 kts | 197° |
| 2026-05-04 19:43 | 18.31069 | -82.81677 | 34992 ft | 457 kts | 197° |
| 2026-05-04 19:44 | 18.24838 | -82.83064 | 34992 ft | 457 kts | 197° |
| 2026-05-04 19:44 | 18.18608 | -82.84449 | 34989 ft | 458 kts | 197° |
| 2026-05-04 19:45 | 18.12382 | -82.85832 | 34991 ft | 458 kts | 197° |
| 2026-05-04 19:45 | 18.06147 | -82.87217 | 34987 ft | 458 kts | 197° |
| 2026-05-04 19:46 | 17.99913 | -82.88600 | 34983 ft | 458 kts | 197° |
| 2026-05-04 19:46 | 17.93675 | -82.89983 | 34986 ft | 458 kts | 197° |
| 2026-05-04 19:47 | 17.87427 | -82.91367 | 34984 ft | 459 kts | 197° |
| 2026-05-04 19:47 | 17.81185 | -82.92749 | 34983 ft | 459 kts | 197° |
| 2026-05-04 19:48 | 17.74939 | -82.94131 | 34982 ft | 459 kts | 196° |
| 2026-05-04 19:48 | 17.68693 | -82.95512 | 34986 ft | 459 kts | 196° |
| 2026-05-04 19:49 | 17.62450 | -82.96891 | 34982 ft | 459 kts | 196° |
| 2026-05-04 19:49 | 17.56202 | -82.98271 | 34982 ft | 459 kts | 196° |
| 2026-05-04 19:50 | 17.49960 | -82.99648 | 34984 ft | 459 kts | 196° |
| 2026-05-04 19:50 | 17.43708 | -83.01026 | 34981 ft | 459 kts | 196° |
| 2026-05-04 19:51 | 17.37458 | -83.02403 | 34980 ft | 459 kts | 196° |
| 2026-05-04 19:51 | 17.31208 | -83.03779 | 34979 ft | 459 kts | 196° |
| 2026-05-04 19:52 | 17.24949 | -83.05156 | 34980 ft | 459 kts | 196° |
| 2026-05-04 19:52 | 17.18698 | -83.06530 | 34979 ft | 459 kts | 196° |
| 2026-05-04 19:53 | 17.12438 | -83.07905 | 34977 ft | 460 kts | 196° |
| 2026-05-04 19:53 | 17.06180 | -83.09280 | 34977 ft | 460 kts | 196° |
| 2026-05-04 19:54 | 16.99914 | -83.10654 | 34975 ft | 460 kts | 195° |
| 2026-05-04 19:54 | 16.93647 | -83.12028 | 34974 ft | 460 kts | 195° |
| 2026-05-04 19:55 | 16.87374 | -83.13403 | 34974 ft | 461 kts | 195° |
| 2026-05-04 19:55 | 16.81095 | -83.14778 | 34970 ft | 461 kts | 195° |
| 2026-05-04 19:56 | 16.74855 | -83.16143 | 34970 ft | 461 kts | 195° |
| 2026-05-04 19:56 | 16.68565 | -83.17518 | 34974 ft | 462 kts | 195° |
| 2026-05-04 19:57 | 16.62279 | -83.18892 | 34976 ft | 462 kts | 195° |
| 2026-05-04 19:57 | 16.55980 | -83.20267 | 34971 ft | 462 kts | 195° |
| 2026-05-04 19:58 | 16.49683 | -83.21641 | 34969 ft | 463 kts | 195° |
| 2026-05-04 19:58 | 16.43377 | -83.23017 | 34970 ft | 463 kts | 195° |
| 2026-05-04 19:59 | 16.37062 | -83.24393 | 34970 ft | 464 kts | 195° |
| 2026-05-04 19:59 | 16.30750 | -83.25767 | 34967 ft | 463 kts | 194° |
| 2026-05-04 20:00 | 16.24444 | -83.27139 | 34965 ft | 462 kts | 194° |
| 2026-05-04 20:00 | 16.18155 | -83.28507 | 34965 ft | 462 kts | 194° |
| 2026-05-04 20:01 | 16.11871 | -83.29873 | 34966 ft | 461 kts | 194° |
| 2026-05-04 20:01 | 16.05603 | -83.31233 | 34966 ft | 460 kts | 194° |
| 2026-05-04 20:02 | 15.99326 | -83.32561 | 34965 ft | 460 kts | 194° |
| 2026-05-04 20:02 | 15.93061 | -83.33880 | 34964 ft | 460 kts | 194° |
| 2026-05-04 20:03 | 15.86787 | -83.35202 | 34963 ft | 460 kts | 194° |
| 2026-05-04 20:03 | 15.80512 | -83.36523 | 34961 ft | 460 kts | 194° |
| 2026-05-04 20:04 | 15.74239 | -83.37843 | 34960 ft | 460 kts | 194° |
| 2026-05-04 20:04 | 15.67965 | -83.39163 | 34958 ft | 460 kts | 194° |
| 2026-05-04 20:05 | 15.61690 | -83.40482 | 34956 ft | 460 kts | 193° |
| 2026-05-04 20:05 | 15.55409 | -83.41801 | 34955 ft | 460 kts | 193° |
| 2026-05-04 20:06 | 15.49129 | -83.43120 | 34955 ft | 461 kts | 193° |
| 2026-05-04 20:06 | 15.42836 | -83.44440 | 34950 ft | 461 kts | 193° |
| 2026-05-04 20:07 | 15.36543 | -83.45760 | 34946 ft | 462 kts | 193° |
| 2026-05-04 20:07 | 15.30392 | -83.47049 | 34948 ft | 462 kts | 193° |
| 2026-05-04 20:08 | 15.24296 | -83.48325 | 34937 ft | 462 kts | 193° |
| 2026-05-04 20:08 | 15.17979 | -83.49648 | 34939 ft | 463 kts | 193° |
| 2026-05-04 20:09 | 15.11673 | -83.50966 | 34933 ft | 463 kts | 193° |
| 2026-05-04 20:09 | 15.05351 | -83.52287 | 34931 ft | 463 kts | 193° |
| 2026-05-04 20:10 | 14.99037 | -83.53607 | 34923 ft | 463 kts | 193° |
| 2026-05-04 20:10 | 14.92715 | -83.54926 | 34922 ft | 464 kts | 193° |
| 2026-05-04 20:11 | 14.86384 | -83.56248 | 34921 ft | 464 kts | 193° |
| 2026-05-04 20:11 | 14.80052 | -83.57568 | 34902 ft | 464 kts | 193° |
| 2026-05-04 20:12 | 14.73726 | -83.58887 | 34900 ft | 464 kts | 193° |
| 2026-05-04 20:12 | 14.67402 | -83.60204 | 34894 ft | 464 kts | 193° |
| 2026-05-04 20:13 | 14.61082 | -83.61519 | 34890 ft | 463 kts | 193° |
| 2026-05-04 20:13 | 14.54806 | -83.62825 | 34887 ft | 463 kts | 193° |
| 2026-05-04 20:14 | 14.48503 | -83.64136 | 34887 ft | 462 kts | 193° |
| 2026-05-04 20:14 | 14.42210 | -83.65443 | 34879 ft | 461 kts | 193° |
| 2026-05-04 20:15 | 14.35917 | -83.66750 | 34883 ft | 461 kts | 193° |
| 2026-05-04 20:15 | 14.29624 | -83.68057 | 34879 ft | 462 kts | 193° |
| 2026-05-04 20:16 | 14.23327 | -83.69363 | 34878 ft | 462 kts | 193° |
| 2026-05-04 20:16 | 14.17027 | -83.70669 | 34880 ft | 462 kts | 193° |
| 2026-05-04 20:17 | 14.10724 | -83.71975 | 34877 ft | 462 kts | 193° |
| 2026-05-04 20:17 | 14.05485 | -83.73060 | 34875 ft | 462 kts | 193° |
| 2026-05-04 20:18 | 13.99179 | -83.74365 | 34873 ft | 462 kts | 193° |
| 2026-05-04 20:18 | 13.92872 | -83.75670 | 34873 ft | 462 kts | 193° |
| 2026-05-04 20:19 | 13.86568 | -83.76974 | 34875 ft | 462 kts | 193° |
| 2026-05-04 20:19 | 13.80252 | -83.78279 | 34871 ft | 462 kts | 193° |
| 2026-05-04 20:20 | 13.73946 | -83.79582 | 34870 ft | 462 kts | 193° |
| 2026-05-04 20:20 | 13.67637 | -83.80884 | 34871 ft | 462 kts | 193° |
| 2026-05-04 20:21 | 13.61332 | -83.82184 | 34875 ft | 462 kts | 193° |
| 2026-05-04 20:21 | 13.51867 | -83.84136 | 34877 ft | 462 kts | 193° |
| 2026-05-04 20:22 | 13.45561 | -83.85435 | 34883 ft | 462 kts | 193° |
| 2026-05-04 20:22 | 13.39251 | -83.86734 | 34882 ft | 463 kts | 193° |
| 2026-05-04 20:23 | 13.32934 | -83.88034 | 34883 ft | 463 kts | 193° |
| 2026-05-04 20:23 | 13.26623 | -83.89332 | 34884 ft | 463 kts | 193° |
| 2026-05-04 20:24 | 13.20313 | -83.90630 | 34885 ft | 462 kts | 193° |
| 2026-05-04 20:24 | 13.14007 | -83.91926 | 34887 ft | 462 kts | 193° |
| 2026-05-04 20:25 | 13.07697 | -83.93222 | 34884 ft | 462 kts | 193° |
| 2026-05-04 20:25 | 13.01391 | -83.94516 | 34891 ft | 462 kts | 193° |
| 2026-05-04 20:26 | 12.95091 | -83.95809 | 34891 ft | 462 kts | 193° |
| 2026-05-04 20:26 | 12.88836 | -83.97091 | 34895 ft | 461 kts | 192° |
| 2026-05-04 20:27 | 12.82550 | -83.98380 | 34895 ft | 461 kts | 192° |
| 2026-05-04 20:27 | 12.76268 | -83.99667 | 34894 ft | 461 kts | 192° |
| 2026-05-04 20:28 | 12.69977 | -84.00955 | 34894 ft | 460 kts | 192° |
| 2026-05-04 20:28 | 12.63696 | -84.02240 | 34894 ft | 460 kts | 192° |
| 2026-05-04 20:29 | 12.57418 | -84.03524 | 34892 ft | 460 kts | 192° |
| 2026-05-04 20:29 | 12.51153 | -84.04804 | 34892 ft | 459 kts | 192° |
| 2026-05-04 20:30 | 12.44880 | -84.06086 | 34892 ft | 459 kts | 192° |
| 2026-05-04 20:30 | 12.38621 | -84.07365 | 34892 ft | 459 kts | 192° |
| 2026-05-04 20:31 | 12.32359 | -84.08644 | 34889 ft | 458 kts | 192° |
| 2026-05-04 20:31 | 12.26101 | -84.09920 | 34891 ft | 459 kts | 192° |
| 2026-05-04 20:32 | 12.19842 | -84.11197 | 34890 ft | 459 kts | 192° |
| 2026-05-04 20:32 | 12.13585 | -84.12472 | 34889 ft | 458 kts | 192° |
| 2026-05-04 20:33 | 12.07369 | -84.13737 | 34891 ft | 458 kts | 192° |
| 2026-05-04 20:33 | 12.01118 | -84.15011 | 34893 ft | 458 kts | 192° |
| 2026-05-04 20:34 | 11.94870 | -84.16284 | 34894 ft | 458 kts | 192° |
| 2026-05-04 20:34 | 11.88620 | -84.17555 | 34895 ft | 458 kts | 192° |
| 2026-05-04 20:35 | 11.82363 | -84.18828 | 34898 ft | 458 kts | 192° |
| 2026-05-04 20:35 | 11.76111 | -84.20099 | 34897 ft | 459 kts | 192° |
| 2026-05-04 20:36 | 11.69849 | -84.21371 | 34900 ft | 459 kts | 192° |
| 2026-05-04 20:36 | 11.63575 | -84.22645 | 34898 ft | 459 kts | 192° |
| 2026-05-04 20:37 | 11.57306 | -84.23918 | 34896 ft | 460 kts | 192° |
| 2026-05-04 20:37 | 11.51073 | -84.25182 | 34898 ft | 460 kts | 191° |
| 2026-05-04 20:38 | 11.44756 | -84.26463 | 34899 ft | 460 kts | 191° |
| 2026-05-04 20:38 | 11.38520 | -84.27727 | 34893 ft | 461 kts | 191° |
| 2026-05-04 20:39 | 11.32230 | -84.29002 | 34892 ft | 460 kts | 191° |
| 2026-05-04 20:39 | 11.25947 | -84.30274 | 34892 ft | 460 kts | 191° |
| 2026-05-04 20:40 | 11.19707 | -84.31538 | 34819 ft | 446 kts | 191° |
| 2026-05-04 20:40 | 11.16698 | -84.32147 | 34428 ft | 440 kts | 191° |
| 2026-05-04 20:40 | 11.13673 | -84.32758 | 33438 ft | 449 kts | 191° |
| 2026-05-04 20:41 | 11.10574 | -84.33385 | 32351 ft | 458 kts | 191° |
| 2026-05-04 20:41 | 11.07431 | -84.34020 | 31480 ft | 462 kts | 192° |
| 2026-05-04 20:41 | 11.04293 | -84.34654 | 30928 ft | 457 kts | 192° |
| 2026-05-04 20:41 | 11.01191 | -84.35281 | 30336 ft | 454 kts | 192° |
| 2026-05-04 20:42 | 10.98095 | -84.35907 | 29702 ft | 451 kts | 192° |
| 2026-05-04 20:42 | 10.95030 | -84.36526 | 29040 ft | 448 kts | 192° |
| 2026-05-04 20:42 | 10.91989 | -84.37142 | 28443 ft | 443 kts | 192° |
| 2026-05-04 20:42 | 10.89011 | -84.37904 | 27650 ft | 442 kts | 198° |
| 2026-05-04 20:43 | 10.86092 | -84.38847 | 26781 ft | 446 kts | 199° |
| 2026-05-04 20:43 | 10.83155 | -84.39834 | 26192 ft | 442 kts | 199° |
| 2026-05-04 20:43 | 10.80257 | -84.40806 | 25623 ft | 438 kts | 199° |
| 2026-05-04 20:43 | 10.77359 | -84.41776 | 25041 ft | 435 kts | 199° |
| 2026-05-04 20:44 | 10.74492 | -84.42732 | 24470 ft | 432 kts | 199° |
| 2026-05-04 20:44 | 10.71644 | -84.43681 | 23916 ft | 429 kts | 199° |
| 2026-05-04 20:44 | 10.68815 | -84.44622 | 23301 ft | 428 kts | 199° |
| 2026-05-04 20:44 | 10.65994 | -84.45561 | 22629 ft | 426 kts | 199° |
| 2026-05-04 20:45 | 10.63194 | -84.46493 | 22047 ft | 422 kts | 199° |
| 2026-05-04 20:45 | 10.60411 | -84.47418 | 21460 ft | 419 kts | 199° |
| 2026-05-04 20:45 | 10.57652 | -84.48337 | 20886 ft | 416 kts | 199° |
| 2026-05-04 20:45 | 10.54910 | -84.49249 | 20296 ft | 414 kts | 198° |
| 2026-05-04 20:46 | 10.52175 | -84.50159 | 19713 ft | 413 kts | 198° |
| 2026-05-04 20:46 | 10.49456 | -84.51062 | 19159 ft | 410 kts | 198° |
| 2026-05-04 20:46 | 10.46745 | -84.51964 | 18651 ft | 408 kts | 198° |
| 2026-05-04 20:46 | 10.44091 | -84.52845 | 18519 ft | 395 kts | 197° |
| 2026-05-04 20:47 | 10.41534 | -84.53692 | 18161 ft | 379 kts | 197° |
| 2026-05-04 20:47 | 10.39041 | -84.54520 | 17198 ft | 377 kts | 197° |
| 2026-05-04 20:47 | 10.36563 | -84.55343 | 16571 ft | 377 kts | 197° |
| 2026-05-04 20:47 | 10.34066 | -84.56170 | 16207 ft | 374 kts | 197° |
| 2026-05-04 20:48 | 10.31594 | -84.56989 | 15641 ft | 374 kts | 197° |
| 2026-05-04 20:48 | 10.29142 | -84.57801 | 15251 ft | 368 kts | 197° |
| 2026-05-04 20:48 | 10.26738 | -84.58598 | 14619 ft | 362 kts | 197° |
| 2026-05-04 20:48 | 10.24383 | -84.59379 | 13930 ft | 359 kts | 197° |
| 2026-05-04 20:49 | 10.22004 | -84.60167 | 13506 ft | 347 kts | 197° |
| 2026-05-04 20:49 | 10.19797 | -84.60900 | 13433 ft | 331 kts | 197° |
| 2026-05-04 20:49 | 10.17628 | -84.61620 | 13319 ft | 318 kts | 197° |
| 2026-05-04 20:49 | 10.15491 | -84.62090 | 12872 ft | 315 kts | 181° |
| 2026-05-04 20:50 | 10.13409 | -84.61723 | 12373 ft | 305 kts | 156° |
| 2026-05-04 20:50 | 10.11556 | -84.60736 | 11966 ft | 299 kts | 148° |
| 2026-05-04 20:50 | 10.09777 | -84.59646 | 11526 ft | 298 kts | 147° |
| 2026-05-04 20:50 | 10.08015 | -84.58559 | 11176 ft | 293 kts | 147° |
| 2026-05-04 20:51 | 10.06317 | -84.57519 | 11106 ft | 278 kts | 147° |
| 2026-05-04 20:51 | 10.04700 | -84.56530 | 11019 ft | 266 kts | 147° |
| 2026-05-04 20:51 | 10.03142 | -84.55581 | 10898 ft | 256 kts | 148° |
| 2026-05-04 20:51 | 10.01630 | -84.54664 | 10639 ft | 253 kts | 147° |
| 2026-05-04 20:52 | 10.00119 | -84.53746 | 10343 ft | 252 kts | 148° |
| 2026-05-04 20:52 | 9.98612 | -84.52834 | 10076 ft | 250 kts | 147° |
| 2026-05-04 20:52 | 9.97109 | -84.51923 | 9748 ft | 251 kts | 147° |
| 2026-05-04 20:52 | 9.95632 | -84.51029 | 9452 ft | 246 kts | 147° |
| 2026-05-04 20:53 | 9.94157 | -84.50137 | 8994 ft | 248 kts | 147° |
| 2026-05-04 20:53 | 9.92669 | -84.49237 | 8558 ft | 249 kts | 147° |
| 2026-05-04 20:53 | 9.91259 | -84.48242 | 8150 ft | 247 kts | 134° |
| 2026-05-04 20:53 | 9.90382 | -84.46788 | 7812 ft | 241 kts | 105° |
| 2026-05-04 20:54 | 9.90349 | -84.45111 | 7423 ft | 239 kts | 76° |
| 2026-05-04 20:54 | 9.90863 | -84.43514 | 7048 ft | 238 kts | 68° |
| 2026-05-04 20:54 | 9.91467 | -84.41950 | 6657 ft | 238 kts | 68° |
| 2026-05-04 20:54 | 9.92081 | -84.40404 | 6310 ft | 236 kts | 66° |
| 2026-05-04 20:55 | 9.92696 | -84.38875 | 6008 ft | 229 kts | 68° |
| 2026-05-04 20:55 | 9.93242 | -84.37407 | 5951 ft | 224 kts | 68° |
| 2026-05-04 20:55 | 9.93786 | -84.35916 | 5721 ft | 221 kts | 68° |
| 2026-05-04 20:55 | 9.94313 | -84.34509 | 5474 ft | 207 kts | 68° |
| 2026-05-04 20:56 | 9.94806 | -84.33185 | 5228 ft | 195 kts | 67° |
| 2026-05-04 20:56 | 9.95273 | -84.31928 | 4985 ft | 184 kts | 67° |
| 2026-05-04 20:56 | 9.95701 | -84.30777 | 4755 ft | 166 kts | 67° |
| 2026-05-04 20:56 | 9.96088 | -84.29737 | 4532 ft | 149 kts | 67° |
| 2026-05-04 20:57 | 9.96442 | -84.28788 | 4355 ft | 141 kts | 67° |
| 2026-05-04 20:57 | 9.96788 | -84.27861 | 4185 ft | 141 kts | 68° |
| 2026-05-04 20:57 | 9.97137 | -84.26926 | 3999 ft | 142 kts | 69° |
| 2026-05-04 20:57 | 9.97491 | -84.25973 | 3832 ft | 144 kts | 66° |
| 2026-05-04 20:58 | 9.97840 | -84.25035 | 3614 ft | 139 kts | 66° |
| 2026-05-04 20:58 | 9.98171 | -84.24144 | 3440 ft | 133 kts | 64° |
| 2026-05-04 20:58 | 9.98498 | -84.23272 | 3217 ft | 133 kts | 65° |
| 2026-05-04 20:58 | 9.98827 | -84.22397 | 3006 ft | 0 kts | 62° |